Terminal Aerodrome Forecast
Issued by NWS

Home | Current Version | Previous Version | Text Only | Print | Product List | Glossary On
Versions: 1 2 3 4 5 6 7 8 9 10 11 12 13 14 15 16 17 18 19 20 21 22 23 24 25 26 27 28 29 30 31 32 33 34
000
FTUS43 KFGF 102327
TAFTVF
TAF
KTVF 102327Z 1100/1124 07005KT P6SM BKN120
     FM110900 06008KT 6SM -SN OVC045
     FM111300 06008KT 2SM -SN OVC025
     FM111600 07007KT P6SM OVC020
     FM112100 03004KT P6SM OVC020=

USA.gov is the U.S. government's official web portal to all federal, state and local government web resources and services.